Terminal Aerodrome Forecast
Issued by NWS

Home | Current Version | Previous Version | Text Only | Print | Product List | Glossary On
Versions: 1 2 3 4 5 6 7 8 9 10 11 12 13 14 15 16 17 18 19 20 21 22 23 24 25 26
000
FTUS42 KGSP 260522
TAFHKY
TAF
KHKY 260522Z 2606/2706 00000KT P6SM SCT250
     FM261000 17003KT 4SM BR BKN015
     FM261300 13004KT 4SM BR VCSH OVC008
     FM261700 17008KT P6SM OVC015 PROB30 2617/2618 2SM -SHRA OVC008
     FM261800 18009KT 4SM -SHRA OVC015
     FM270200 17004KT P6SM OVC050 PROB30 2702/2705 4SM -SHRA OVC015=

USA.gov is the U.S. government's official web portal to all federal, state and local government web resources and services.